Santa Paula, CA (93060)

9:07 AM PDT on March 30, 2017 (GMT -0700)
Santa Paula | | Change Station
Active Advisory: Wind Advisory

Elev 0 ft 34.36 °N, 119.07 °W | Updated 17 minutes ago

Clear
Clear
63.7 °F
Feels Like 63.7 °F
N
1.9
Wind Variable Wind from NE
Gusts 3.7 mph

Today
High -- | Low -- °F
--% Chance of Precip.
Yesterday
High -- | Low -- °F
Precip. -- in
Pressure 29.98 in
Visibility 8.0 miles
Clouds Clear
Dew Point 46 °F
Humidity 52%
Rainfall 0.00 in
Snow Depth Not available.
6:45 AM 7:15 PM
Waxing Crescent, 9% visible
METAR KCMA 301555Z 06003KT 8SM CLR 16/11 A2996 RMK AO2 SLP152 T01560111
Pressure 29.98 in
Visibility 8.0 miles
Clouds Clear
Dew Point 46 °F
Humidity 52%
Rainfall 0.00 in
Snow Depth Not available.
6:45 AM 7:15 PM
Waxing Crescent, 9% visible
METAR KCMA 301555Z 06003KT 8SM CLR 16/11 A2996 RMK AO2 SLP152 T01560111

Get Your Daily Forecast Email!

Thanks for signing up!

Be on the lookout for a verification email in your inbox.

You'll start receiving severe weather alerts in your inbox..

×

10-Day Weather Forecast

Almanac

Astronomy

Mar. 30, 2017 Rise Set
Actual Time
Civil Twilight
Nautical Twilight
Astronomical Twilight
Moon
Length of Visible Light
Length of Day
Tomorrow will be .
, % of the Moon is Illuminated

Today's Extremes

State Highs State Lows

Community

WunderPhotos

Upload Photos

1,962,540 photos uploaded!

WunderBlog® & News

Nearby

Air Quality

  Air Quality AQ Index Pollutant
Not available.

Snow Depth

Station Depth Elevation

Earthquake Activity

City Distance Mag. Time & Date
Minimum magnitude displayed is 2.5.

Earthquake Activity

City Distance Mag. Time & Date
Minimum magnitude displayed is 2.5.

Coastal Water Temperatures

Place Temperature

Stations

Nearby Weather Stations

Station Location Temp. Windchill Dew Point Humidity Wind Precip. Elev Updated Type
                   

Watches & Warnings

Wind Advisory
Issued: 8:56 AM PDT Mar. 30, 2017 – National Weather Service

... Wind Advisory remains in effect from 2 PM this afternoon to
8 am PDT Friday...

* winds and timing... areas of northwest to north winds 20 to 30
mph with gusts to 45 mph will develop early this afternoon,
then continue through early Friday morning before diminishing.
Local gusts to 55 mph are possible near the foothills.

* Impacts... gusty winds will make driving difficult, especially
for drivers of high profile vehicles. Major roads that will be
affected include the 5, 23, 101, 118, 170, 210 and 405
freeways.

Precautionary/preparedness actions...

When driving, use extra caution. Be prepared for sudden gusty
cross winds.